createdAt,value
2022-08-05T00:00:19.141Z,57.90
2022-08-05T00:02:50.438Z,58.20
2022-08-05T00:06:03.254Z,58.20
2022-08-05T00:08:32.996Z,58.20
2022-08-05T00:11:00.169Z,58.50
2022-08-05T00:13:39.037Z,58.70
2022-08-05T00:16:12.395Z,58.90
2022-08-05T00:18:42.576Z,58.80
2022-08-05T00:21:14.386Z,58.90
2022-08-05T00:23:45.700Z,59.20
2022-08-05T00:26:16.362Z,59.80
2022-08-05T00:28:46.923Z,59.50
2022-08-05T00:31:41.517Z,59.70
2022-08-05T00:34:55.425Z,59.90
2022-08-05T00:37:11.169Z,60.00
2022-08-05T00:39:44.233Z,60.50
2022-08-05T00:42:33.323Z,60.30
2022-08-05T00:45:03.507Z,60.10
2022-08-05T00:47:56.657Z,60.30
2022-08-05T00:50:21.448Z,60.30
2022-08-05T00:52:55.005Z,60.30
2022-08-05T00:55:34.137Z,59.90
2022-08-05T00:58:11.609Z,59.90
2022-08-05T01:00:42.612Z,60.00
2022-08-05T01:03:22.349Z,60.10
2022-08-05T01:05:51.718Z,60.20
2022-08-05T01:08:41.597Z,60.30
2022-08-05T01:11:22.613Z,60.30
2022-08-05T01:14:04.268Z,60.30
2022-08-05T01:16:45.298Z,60.50
2022-08-05T01:19:36.566Z,60.50
2022-08-05T01:22:40.900Z,60.60
2022-08-05T01:25:39.986Z,60.80
2022-08-05T01:28:22.575Z,60.70
2022-08-05T01:30:55.994Z,60.90
2022-08-05T01:33:35.310Z,60.90
2022-08-05T01:36:12.902Z,60.90
2022-08-05T01:38:48.529Z,60.70
2022-08-05T01:41:22.695Z,61.00
2022-08-05T01:43:57.642Z,61.00
2022-08-05T01:46:42.332Z,61.10
2022-08-05T01:49:23.828Z,61.10
2022-08-05T01:51:58.751Z,61.40
2022-08-05T01:54:34.597Z,61.50
2022-08-05T01:58:10.300Z,61.50
2022-08-05T02:00:12.018Z,61.60
2022-08-05T02:02:46.398Z,61.80
2022-08-05T02:05:23.874Z,62.10
2022-08-05T02:08:01.092Z,62.00
2022-08-05T02:10:41.022Z,61.80
2022-08-05T02:13:16.854Z,61.80
2022-08-05T02:15:52.163Z,61.80
2022-08-05T02:18:31.170Z,61.70
2022-08-05T02:21:13.275Z,61.80
2022-08-05T02:23:48.483Z,61.60
2022-08-05T02:26:22.137Z,61.80
2022-08-05T02:28:51.636Z,62.10
2022-08-05T02:31:25.515Z,62.40
2022-08-05T02:34:01.019Z,62.10
2022-08-05T02:36:31.856Z,62.30
2022-08-05T02:39:02.943Z,61.90
2022-08-05T02:41:42.843Z,62.00
2022-08-05T02:44:23.323Z,62.20
2022-08-05T02:47:00.471Z,62.40
2022-08-05T02:49:37.118Z,62.90
2022-08-05T02:52:09.285Z,62.80
2022-08-05T02:54:41.227Z,62.90
2022-08-05T02:58:09.266Z,62.80
2022-08-05T03:00:01.506Z,62.90
2022-08-05T03:02:35.777Z,62.90
2022-08-05T03:05:06.311Z,63.20
2022-08-05T03:07:59.298Z,63.00
2022-08-05T03:10:25.750Z,63.10
2022-08-05T03:12:55.188Z,63.10
2022-08-05T03:15:24.590Z,63.50
2022-08-05T03:17:57.599Z,63.80
2022-08-05T03:20:27.043Z,64.00
2022-08-05T03:22:58.083Z,63.70
2022-08-05T03:26:03.525Z,64.00
2022-08-05T03:28:18.660Z,64.20
2022-08-05T03:30:49.292Z,63.90
2022-08-05T03:33:19.799Z,63.70
2022-08-05T03:35:49.852Z,63.60
2022-08-05T03:38:23.913Z,63.60
2022-08-05T03:41:04.030Z,64.80
2022-08-05T03:44:08.957Z,64.00
2022-08-05T03:46:26.835Z,64.20
2022-08-05T03:49:02.013Z,64.00
2022-08-05T03:52:38.382Z,63.70
2022-08-05T03:56:04.946Z,64.00
2022-08-05T03:57:41.965Z,64.00
2022-08-05T04:00:15.920Z,63.80
2022-08-05T04:02:52.317Z,63.90
2022-08-05T04:05:33.394Z,63.80
2022-08-05T04:08:05.824Z,63.80
2022-08-05T04:10:45.356Z,64.00
2022-08-05T04:13:18.334Z,64.10
2022-08-05T04:16:02.995Z,64.20
2022-08-05T04:18:34.320Z,64.10
2022-08-05T04:21:05.635Z,64.10
2022-08-05T04:24:06.068Z,64.20
2022-08-05T04:26:24.651Z,64.40
2022-08-05T04:28:53.553Z,64.50
2022-08-05T04:31:22.654Z,64.10
2022-08-05T04:34:18.259Z,64.40
2022-08-05T04:36:50.027Z,64.20
2022-08-05T04:39:19.154Z,64.50
2022-08-05T04:41:48.884Z,64.40
2022-08-05T04:44:21.376Z,64.70
2022-08-05T04:46:58.723Z,64.70
2022-08-05T04:49:38.689Z,64.60
2022-08-05T04:52:18.708Z,64.70
2022-08-05T04:54:47.543Z,64.80
2022-08-05T04:57:18.166Z,64.40
2022-08-05T04:59:48.119Z,64.50
2022-08-05T05:02:36.282Z,64.70
2022-08-05T05:05:16.500Z,64.80
2022-08-05T05:08:01.758Z,64.50
2022-08-05T05:10:33.270Z,65.10
2022-08-05T05:13:03.773Z,65.00
2022-08-05T05:15:59.481Z,64.80
2022-08-05T05:18:28.447Z,65.60
2022-08-05T05:21:01.866Z,66.00
2022-08-05T05:24:01.876Z,66.00
2022-08-05T05:26:28.797Z,66.30
2022-08-05T05:29:02.597Z,66.90
2022-08-05T05:34:05.627Z,67.10
2022-08-05T05:36:35.394Z,66.90
2022-08-05T05:39:09.349Z,66.70
2022-08-05T05:41:40.140Z,66.60
2022-08-05T05:44:35.434Z,66.70
2022-08-05T05:46:58.602Z,66.80
2022-08-05T05:49:33.661Z,66.80
2022-08-05T05:52:07.184Z,66.80
2022-08-05T05:54:51.107Z,67.10
2022-08-05T05:57:20.639Z,66.70
2022-08-05T05:59:49.249Z,67.20
2022-08-05T06:02:31.014Z,67.40
2022-08-05T06:05:01.494Z,67.80
2022-08-05T06:07:41.753Z,67.30
2022-08-05T06:10:13.410Z,67.60
2022-08-05T06:12:44.064Z,67.80
2022-08-05T06:15:23.967Z,67.80
2022-08-05T06:17:54.738Z,67.90
2022-08-05T06:20:23.312Z,68.10
2022-08-05T06:22:51.716Z,67.30
2022-08-05T06:25:25.118Z,68.80
2022-08-05T06:28:20.899Z,68.30
2022-08-05T06:30:50.315Z,68.00
2022-08-05T06:33:19.434Z,68.20
2022-08-05T06:36:07.138Z,68.40
2022-08-05T06:38:38.284Z,69.30
2022-08-05T06:41:17.020Z,68.80
2022-08-05T06:43:58.727Z,69.40
2022-08-05T06:46:30.202Z,69.70
2022-08-05T06:49:01.360Z,69.20
2022-08-05T06:51:31.503Z,69.90
2022-08-05T06:54:02.450Z,69.20
2022-08-05T06:56:35.077Z,68.70
2022-08-05T06:59:08.439Z,69.10
2022-08-05T07:01:40.657Z,68.60
2022-08-05T07:04:13.955Z,68.20
2022-08-05T07:06:42.838Z,68.30
2022-08-05T07:09:11.377Z,69.60
2022-08-05T07:11:49.381Z,69.80
2022-08-05T07:14:37.345Z,69.80
2022-08-05T07:17:58.409Z,70.20
2022-08-05T07:22:45.705Z,70.40
2022-08-05T07:25:55.489Z,70.30
2022-08-05T07:28:11.455Z,70.20
2022-08-05T07:30:41.126Z,69.00
2022-08-05T07:33:16.538Z,68.80
2022-08-05T07:36:03.191Z,68.60
2022-08-05T07:38:43.150Z,68.90
2022-08-05T07:42:09.440Z,69.20
2022-08-05T07:44:18.814Z,68.60
2022-08-05T07:46:49.539Z,68.50
2022-08-05T07:49:18.763Z,68.30
2022-08-05T07:51:54.715Z,68.20
2022-08-05T07:54:31.286Z,68.10
2022-08-05T07:57:22.558Z,68.10
2022-08-05T07:59:53.717Z,68.10
2022-08-05T08:02:26.304Z,68.10
2022-08-05T08:04:55.658Z,68.30
2022-08-05T08:07:24.629Z,68.10
2022-08-05T08:09:56.847Z,68.10
2022-08-05T08:12:35.521Z,68.00
2022-08-05T08:15:15.232Z,67.90
2022-08-05T08:17:50.827Z,68.00
2022-08-05T08:20:59.690Z,67.90
2022-08-05T08:24:01.380Z,67.90
2022-08-05T08:26:04.694Z,67.90
2022-08-05T08:28:36.350Z,67.80
2022-08-05T08:31:09.096Z,67.80
2022-08-05T08:33:38.579Z,67.80
2022-08-05T08:38:57.668Z,67.60
2022-08-05T08:41:50.623Z,67.60
2022-08-05T08:45:19.741Z,67.50
2022-08-05T08:47:21.683Z,67.10
2022-08-05T08:50:14.547Z,67.10
2022-08-05T08:52:54.474Z,67.60
2022-08-05T08:56:01.863Z,67.70
2022-08-05T08:58:17.179Z,69.20
2022-08-05T09:00:46.882Z,70.00
2022-08-05T09:03:19.229Z,70.00
2022-08-05T09:06:09.247Z,68.70
2022-08-05T09:08:41.680Z,68.80
2022-08-05T09:11:15.217Z,69.00
2022-08-05T09:14:10.112Z,68.60
2022-08-05T09:16:33.478Z,67.90
2022-08-05T09:19:06.767Z,69.50
2022-08-05T09:22:22.849Z,69.20
2022-08-05T09:24:25.168Z,69.20
2022-08-05T09:26:59.588Z,69.70
2022-08-05T09:29:47.810Z,69.70
2022-08-05T09:32:43.047Z,73.70
2022-08-05T09:35:26.483Z,77.90
2022-08-05T09:38:18.485Z,78.60
2022-08-05T09:40:52.545Z,79.90
2022-08-05T09:43:41.120Z,80.90
2022-08-05T09:46:28.229Z,81.40
2022-08-05T09:49:06.771Z,83.20
2022-08-05T09:51:39.973Z,82.50
2022-08-05T09:54:10.124Z,83.20
2022-08-05T09:56:40.050Z,82.50
2022-08-05T09:59:19.981Z,82.10
2022-08-05T10:01:48.574Z,82.30
2022-08-05T10:04:38.298Z,83.10
2022-08-05T10:07:20.976Z,82.40
2022-08-05T10:10:14.662Z,81.80
2022-08-05T10:12:50.078Z,81.70
2022-08-05T10:15:25.847Z,82.50
2022-08-05T10:18:12.915Z,82.50
2022-08-05T10:20:47.663Z,82.80
2022-08-05T10:23:34.706Z,82.80
2022-08-05T10:26:14.058Z,82.70
2022-08-05T10:28:44.016Z,82.80
2022-08-05T10:32:47.846Z,83.40
2022-08-05T10:34:03.614Z,83.90
2022-08-05T10:36:32.375Z,84.40
2022-08-05T10:39:11.841Z,85.30
2022-08-05T10:42:02.315Z,85.00
2022-08-05T10:44:33.734Z,84.60
2022-08-05T10:47:26.055Z,84.30
2022-08-05T10:50:31.979Z,84.60
2022-08-05T10:52:59.898Z,84.20
2022-08-05T10:55:32.922Z,84.90
2022-08-05T10:58:20.655Z,84.50
2022-08-05T11:00:55.370Z,84.80
2022-08-05T11:03:31.401Z,84.90
2022-08-05T11:06:15.326Z,85.10
2022-08-05T11:09:24.247Z,85.50
2022-08-05T11:12:54.336Z,85.20
2022-08-05T11:15:59.378Z,84.50
2022-08-05T11:18:29.706Z,84.60
2022-08-05T11:20:59.038Z,84.70
2022-08-05T11:24:04.265Z,86.10
2022-08-05T11:26:32.109Z,86.10
2022-08-05T11:29:11.879Z,85.20
2022-08-05T11:31:57.801Z,85.60
2022-08-05T11:34:51.479Z,86.30
2022-08-05T11:38:28.305Z,86.30
2022-08-05T11:41:12.756Z,84.80
2022-08-05T11:44:07.020Z,84.40
2022-08-05T11:46:58.548Z,84.10
2022-08-05T11:49:27.797Z,84.10
2022-08-05T11:51:57.726Z,83.80
2022-08-05T11:54:33.457Z,84.50
2022-08-05T11:57:08.062Z,84.90
2022-08-05T11:59:52.801Z,84.30
2022-08-05T12:02:31.379Z,84.30
2022-08-05T12:05:08.033Z,84.30
2022-08-05T12:08:03.143Z,85.10
2022-08-05T12:10:45.206Z,84.50
2022-08-05T12:13:27.877Z,84.50
2022-08-05T12:16:14.497Z,84.20
2022-08-05T12:18:49.623Z,84.20
2022-08-05T12:21:24.382Z,83.80
2022-08-05T12:24:00.133Z,83.70
2022-08-05T12:26:36.111Z,83.20
2022-08-05T12:29:05.954Z,83.30
2022-08-05T12:31:42.462Z,83.40
2022-08-05T12:36:33.461Z,83.10
2022-08-05T12:39:02.859Z,83.60
2022-08-05T12:41:43.549Z,82.40
2022-08-05T12:44:28.697Z,81.90
2022-08-05T12:47:03.596Z,80.10
2022-08-05T12:50:04.220Z,79.60
2022-08-05T12:52:38.823Z,79.20
2022-08-05T12:55:22.541Z,78.40
2022-08-05T12:58:50.935Z,77.70
2022-08-05T13:02:04.440Z,77.80
2022-08-05T13:03:33.362Z,77.50
2022-08-05T13:06:01.939Z,77.50
2022-08-05T13:08:32.642Z,77.50
2022-08-05T13:11:02.325Z,77.50
2022-08-05T13:14:06.426Z,77.80
2022-08-05T13:16:25.067Z,78.90
2022-08-05T13:18:58.662Z,78.00
2022-08-05T13:21:27.731Z,77.10
2022-08-05T13:23:58.508Z,77.90
2022-08-05T13:26:30.266Z,76.70
2022-08-05T13:28:59.112Z,76.50
2022-08-05T13:31:33.974Z,77.00
2022-08-05T13:34:23.189Z,78.30
2022-08-05T13:36:54.450Z,78.60
2022-08-05T13:40:13.936Z,78.80
2022-08-05T13:42:14.380Z,79.60
2022-08-05T13:44:45.920Z,79.50
2022-08-05T13:47:35.729Z,79.40
2022-08-05T13:50:09.619Z,80.50
2022-08-05T13:52:41.264Z,80.50
2022-08-05T13:55:11.316Z,81.10
2022-08-05T13:57:59.622Z,80.70
2022-08-05T14:00:28.556Z,80.50
2022-08-05T14:02:57.984Z,80.70
2022-08-05T14:05:48.200Z,80.80
2022-08-05T14:08:20.782Z,81.50
2022-08-05T14:11:03.303Z,81.50
2022-08-05T14:13:48.172Z,82.60
2022-08-05T14:16:19.292Z,81.90
2022-08-05T14:18:47.775Z,81.70
2022-08-05T14:22:07.769Z,82.60
2022-08-05T14:24:04.912Z,82.50
2022-08-05T14:26:37.026Z,82.70
2022-08-05T14:29:16.289Z,82.80
2022-08-05T14:31:54.445Z,82.20
2022-08-05T14:34:35.227Z,82.90
2022-08-05T14:37:04.330Z,82.20
2022-08-05T14:39:49.343Z,82.10
2022-08-05T14:42:23.513Z,81.70
2022-08-05T14:44:53.830Z,80.80
2022-08-05T14:48:02.496Z,80.90
2022-08-05T14:50:18.267Z,80.50
2022-08-05T14:52:53.633Z,80.60
2022-08-05T14:55:26.051Z,81.30
2022-08-05T14:58:13.879Z,80.70
2022-08-05T15:00:58.353Z,80.90
2022-08-05T15:03:33.573Z,80.50
2022-08-05T15:06:15.274Z,80.80
2022-08-05T15:09:01.265Z,80.50
2022-08-05T15:11:51.372Z,80.20
2022-08-05T15:14:35.880Z,78.00
2022-08-05T15:17:44.892Z,77.80
2022-08-05T15:19:58.642Z,78.20
2022-08-05T15:22:28.373Z,77.20
2022-08-05T15:24:59.305Z,76.50
2022-08-05T15:27:32.067Z,77.00
2022-08-05T15:30:06.970Z,77.60
2022-08-05T15:32:35.360Z,77.30
2022-08-05T15:35:04.157Z,77.50
2022-08-05T15:38:33.856Z,77.70
2022-08-05T15:41:00.838Z,77.80
2022-08-05T15:43:19.710Z,77.60
2022-08-05T15:45:59.789Z,78.10
2022-08-05T15:48:30.049Z,78.50
2022-08-05T15:51:03.414Z,78.80
2022-08-05T15:53:38.544Z,79.20
2022-08-05T15:56:19.969Z,79.20
2022-08-05T15:58:48.668Z,78.40
2022-08-05T16:01:20.107Z,78.00
2022-08-05T16:03:50.601Z,77.70
2022-08-05T16:06:22.848Z,76.50
2022-08-05T16:08:53.767Z,75.50
2022-08-05T16:11:40.210Z,75.10
2022-08-05T16:14:17.256Z,74.10
2022-08-05T16:16:47.811Z,73.90
2022-08-05T16:19:18.965Z,73.20
2022-08-05T16:22:05.787Z,74.10
2022-08-05T16:24:40.066Z,75.50
2022-08-05T16:27:15.975Z,75.00
2022-08-05T16:29:50.394Z,75.50
2022-08-05T16:32:28.756Z,76.10
2022-08-05T16:34:58.930Z,76.40
2022-08-05T16:38:02.037Z,77.60
2022-08-05T16:40:26.576Z,80.20
2022-08-05T16:42:57.909Z,79.50
2022-08-05T16:46:03.824Z,80.00
2022-08-05T16:48:25.241Z,78.20
2022-08-05T16:50:54.802Z,79.10
2022-08-05T16:54:03.075Z,78.80
2022-08-05T16:56:12.336Z,79.20
2022-08-05T16:58:41.954Z,79.30
2022-08-05T17:01:10.728Z,79.40
2022-08-05T17:03:40.749Z,79.30
2022-08-05T17:06:09.529Z,79.20
2022-08-05T17:08:52.676Z,79.00
2022-08-05T17:11:25.259Z,78.70
2022-08-05T17:14:05.883Z,79.20
2022-08-05T17:16:37.074Z,79.00
2022-08-05T17:19:09.597Z,79.10
2022-08-05T17:21:39.665Z,79.70
2022-08-05T17:24:28.266Z,80.00
2022-08-05T17:26:59.017Z,80.00
2022-08-05T17:29:33.152Z,79.80
2022-08-05T17:32:11.948Z,80.00
2022-08-05T17:34:48.213Z,80.20
2022-08-05T17:37:41.415Z,79.80
2022-08-05T17:40:10.669Z,80.00
2022-08-05T17:42:42.895Z,80.20
2022-08-05T17:45:21.200Z,80.20
2022-08-05T17:47:54.414Z,79.80
2022-08-05T17:50:28.327Z,79.60
2022-08-05T17:52:59.520Z,80.00
2022-08-05T17:55:37.217Z,79.90
2022-08-05T17:58:09.838Z,80.10
2022-08-05T18:00:47.420Z,80.30
2022-08-05T18:03:58.469Z,80.40
2022-08-05T18:06:17.372Z,79.80
2022-08-05T18:08:52.627Z,80.40
2022-08-05T18:11:24.390Z,80.30
2022-08-05T18:14:04.342Z,80.90
2022-08-05T18:16:33.589Z,80.70
2022-08-05T18:19:02.159Z,80.20
2022-08-05T18:22:08.541Z,80.70
2022-08-05T18:24:20.989Z,80.90
2022-08-05T18:26:49.429Z,81.40
2022-08-05T18:29:17.883Z,81.60
2022-08-05T18:32:07.030Z,82.00
2022-08-05T18:34:42.978Z,81.60
2022-08-05T18:37:16.935Z,81.70
2022-08-05T18:41:50.792Z,81.20
2022-08-05T18:42:50.214Z,81.80
2022-08-05T18:45:20.648Z,82.00
2022-08-05T18:47:56.373Z,81.50
2022-08-05T18:50:46.792Z,81.80
2022-08-05T18:53:22.223Z,81.90
2022-08-05T18:55:53.512Z,81.80
2022-08-05T18:58:27.155Z,81.80
2022-08-05T19:00:58.067Z,81.90
2022-08-05T19:03:53.385Z,81.80
2022-08-05T19:06:20.089Z,81.80
2022-08-05T19:08:52.224Z,81.50
2022-08-05T19:11:27.926Z,81.50
2022-08-05T19:14:01.140Z,82.00
2022-08-05T19:16:46.720Z,82.30
2022-08-05T19:19:16.069Z,82.60
2022-08-05T19:21:49.980Z,82.80
2022-08-05T19:24:34.568Z,83.00
2022-08-05T19:27:03.921Z,83.30
2022-08-05T19:29:35.959Z,82.50
2022-08-05T19:32:08.484Z,82.80
2022-08-05T19:34:40.007Z,82.10
2022-08-05T19:37:10.133Z,77.50
2022-08-05T19:39:45.812Z,75.00
2022-08-05T19:42:35.502Z,72.50
2022-08-05T19:45:05.882Z,70.00
2022-08-05T19:47:34.805Z,67.60
2022-08-05T19:50:07.706Z,67.40
2022-08-05T19:52:38.915Z,67.20
2022-08-05T19:56:11.681Z,66.50
2022-08-05T19:58:14.530Z,67.30
2022-08-05T20:00:47.694Z,65.60
2022-08-05T20:03:16.125Z,66.00
2022-08-05T20:05:51.185Z,65.70
2022-08-05T20:08:20.396Z,65.10
2022-08-05T20:10:55.214Z,64.40
2022-08-05T20:13:54.560Z,65.00
2022-08-05T20:16:12.019Z,64.70
2022-08-05T20:18:40.931Z,66.30
2022-08-05T20:21:09.853Z,64.70
2022-08-05T20:23:50.265Z,64.40
2022-08-05T20:26:24.713Z,64.40
2022-08-05T20:28:56.254Z,63.70
2022-08-05T20:31:37.092Z,64.00
2022-08-05T20:34:12.795Z,63.70
2022-08-05T20:36:43.490Z,63.80
2022-08-05T20:39:13.279Z,63.40
2022-08-05T20:41:45.270Z,64.10
2022-08-05T20:44:18.863Z,63.80
2022-08-05T20:46:58.056Z,64.30
2022-08-05T20:49:26.554Z,64.20
2022-08-05T20:51:55.168Z,64.30
2022-08-05T20:54:25.399Z,64.50
2022-08-05T20:56:55.179Z,64.30
2022-08-05T20:59:26.889Z,65.30
2022-08-05T21:01:58.050Z,65.90
2022-08-05T21:04:27.293Z,65.30
2022-08-05T21:06:56.004Z,65.00
2022-08-05T21:09:24.432Z,65.20
2022-08-05T21:12:07.639Z,65.60
2022-08-05T21:14:39.779Z,65.70
2022-08-05T21:17:08.177Z,65.80
2022-08-05T21:19:46.694Z,67.80
2022-08-05T21:22:23.098Z,67.90
2022-08-05T21:24:52.812Z,68.20
2022-08-05T21:27:25.464Z,68.20
2022-08-05T21:29:56.148Z,68.20
2022-08-05T21:32:27.115Z,68.70
2022-08-05T21:35:08.990Z,69.40
2022-08-05T21:37:47.106Z,68.40
2022-08-05T21:40:21.339Z,68.60
2022-08-05T21:42:52.666Z,68.80
2022-08-05T21:45:24.864Z,70.10
2022-08-05T21:48:10.928Z,70.10
2022-08-05T21:50:42.252Z,70.70
2022-08-05T21:53:27.065Z,70.70
2022-08-05T21:56:05.667Z,70.80
2022-08-05T21:58:42.096Z,71.00
2022-08-05T22:01:11.224Z,71.50
2022-08-05T22:03:53.657Z,71.70
2022-08-05T22:06:34.850Z,71.10
2022-08-05T22:09:14.614Z,72.30
2022-08-05T22:11:46.698Z,71.80
2022-08-05T22:14:34.479Z,71.90
2022-08-05T22:17:06.722Z,72.50
2022-08-05T22:20:01.750Z,72.50
2022-08-05T22:22:28.271Z,72.70
2022-08-05T22:25:18.014Z,73.00
2022-08-05T22:28:08.891Z,73.30
2022-08-05T22:30:55.818Z,73.60
2022-08-05T22:33:56.523Z,73.70
2022-08-05T22:36:14.695Z,74.60
2022-08-05T22:38:48.185Z,74.60
2022-08-05T22:42:04.579Z,74.60
2022-08-05T22:44:07.111Z,75.00
2022-08-05T22:46:40.247Z,75.40
2022-08-05T22:49:12.100Z,75.50
2022-08-05T22:52:04.736Z,75.70
2022-08-05T22:54:36.441Z,76.00
2022-08-05T22:57:05.658Z,76.40
2022-08-05T22:59:48.532Z,76.50
2022-08-05T23:02:29.542Z,77.00
2022-08-05T23:05:01.843Z,77.10
2022-08-05T23:07:44.748Z,77.40
2022-08-05T23:10:14.272Z,77.10
2022-08-05T23:12:43.874Z,77.80
2022-08-05T23:15:12.811Z,78.20
2022-08-05T23:18:00.944Z,78.30
2022-08-05T23:20:31.577Z,78.80
2022-08-05T23:23:05.915Z,78.60
2022-08-05T23:25:51.132Z,79.10
2022-08-05T23:28:28.852Z,79.10
2022-08-05T23:31:15.667Z,79.40
2022-08-05T23:34:04.849Z,79.70
2022-08-05T23:36:39.826Z,79.70
2022-08-05T23:39:16.588Z,80.20
2022-08-05T23:41:51.974Z,80.40
2022-08-05T23:44:25.029Z,80.20
2022-08-05T23:46:56.330Z,80.20
2022-08-05T23:49:34.107Z,81.10
2022-08-05T23:52:28.372Z,80.60
2022-08-05T23:54:57.905Z,81.20
2022-08-05T23:57:28.239Z,81.50
